createdAt,value
2023-02-27T00:00:41.929Z,0.03
2023-02-27T00:01:42.924Z,-0.05
2023-02-27T00:02:42.004Z,-0.07
2023-02-27T00:03:41.945Z,-0.11
2023-02-27T00:04:41.897Z,-0.26
2023-02-27T00:05:41.892Z,-0.15
2023-02-27T00:06:41.883Z,-0.28
2023-02-27T00:07:41.897Z,-0.21
2023-02-27T00:08:41.895Z,-0.23
2023-02-27T00:09:41.868Z,-0.16
2023-02-27T00:10:41.852Z,-0.19
2023-02-27T00:11:41.822Z,-0.19
2023-02-27T00:12:41.840Z,-0.22
2023-02-27T00:13:41.815Z,-0.16
2023-02-27T00:14:41.813Z,-0.15
2023-02-27T00:15:41.915Z,-0.28
2023-02-27T00:16:41.793Z,-0.23
2023-02-27T00:17:41.770Z,-0.37
2023-02-27T00:18:41.795Z,-0.33
2023-02-27T00:19:41.789Z,-0.23
2023-02-27T00:20:41.737Z,-0.21
2023-02-27T00:21:41.769Z,-0.14
2023-02-27T00:22:41.819Z,-0.16
2023-02-27T00:23:41.717Z,-0.08
2023-02-27T00:24:41.738Z,-0.15
2023-02-27T00:25:41.712Z,-0.15
2023-02-27T00:26:41.694Z,-0.15
2023-02-27T00:27:41.709Z,-0.11
2023-02-27T00:28:41.678Z,-0.16
2023-02-27T00:29:41.659Z,-0.15
2023-02-27T00:30:41.683Z,-0.16
2023-02-27T00:31:41.668Z,-0.14
2023-02-27T00:32:41.642Z,-0.10
2023-02-27T00:33:41.651Z,-0.15
2023-02-27T00:34:41.607Z,-0.28
2023-02-27T00:35:41.605Z,-0.16
2023-02-27T00:36:41.588Z,-0.22
2023-02-27T00:37:41.593Z,-0.26
2023-02-27T00:38:41.593Z,-0.26
2023-02-27T00:39:41.562Z,-0.33
2023-02-27T00:40:41.567Z,-0.29
2023-02-27T00:41:41.550Z,-0.37
2023-02-27T00:42:41.568Z,-0.22
2023-02-27T00:43:41.538Z,-0.22
2023-02-27T00:44:41.528Z,-0.21
2023-02-27T00:45:41.518Z,-0.22
2023-02-27T00:46:41.543Z,-0.19
2023-02-27T00:47:41.509Z,-0.31
2023-02-27T00:48:41.493Z,-0.37
2023-02-27T00:49:41.504Z,-0.37
2023-02-27T00:50:41.465Z,-0.28
2023-02-27T00:51:41.457Z,-0.39
2023-02-27T00:52:41.438Z,-0.40
2023-02-27T00:53:41.434Z,-0.34
2023-02-27T00:54:41.437Z,-0.26
2023-02-27T00:55:41.449Z,-0.47
2023-02-27T00:56:41.412Z,-0.47
2023-02-27T00:57:41.439Z,-0.52
2023-02-27T00:58:41.391Z,-0.54
2023-02-27T00:59:41.399Z,-0.49
2023-02-27T01:00:41.408Z,-0.37
2023-02-27T01:01:41.358Z,-0.31
2023-02-27T01:02:41.470Z,-0.55
2023-02-27T01:03:41.349Z,-0.60
2023-02-27T01:04:41.359Z,-0.57
2023-02-27T01:05:41.341Z,-0.49
2023-02-27T01:06:41.312Z,-0.47
2023-02-27T01:07:41.322Z,-0.44
2023-02-27T01:08:41.285Z,-0.51
2023-02-27T01:09:41.286Z,-0.49
2023-02-27T01:10:41.280Z,-0.58
2023-02-27T01:11:41.276Z,-0.55
2023-02-27T01:12:41.323Z,-0.46
2023-02-27T01:13:41.246Z,-0.43
2023-02-27T01:14:41.244Z,-0.40
2023-02-27T01:15:41.227Z,-0.34
2023-02-27T01:16:41.217Z,-0.34
2023-02-27T01:17:41.211Z,-0.28
2023-02-27T01:18:41.223Z,-0.40
2023-02-27T01:19:41.190Z,-0.52
2023-02-27T01:20:41.175Z,-0.52
2023-02-27T01:21:41.177Z,-0.52
2023-02-27T01:22:41.162Z,-0.57
2023-02-27T01:23:41.175Z,-0.61
2023-02-27T01:24:41.203Z,-0.61
2023-02-27T01:25:41.150Z,-0.55
2023-02-27T01:26:41.130Z,-0.55
2023-02-27T01:27:41.114Z,-0.46
2023-02-27T01:28:41.101Z,-0.37
2023-02-27T01:29:41.119Z,-0.37
2023-02-27T01:30:41.115Z,-0.34
2023-02-27T01:31:41.131Z,-0.36
2023-02-27T01:32:41.149Z,-0.25
2023-02-27T01:33:41.052Z,-0.25
2023-02-27T01:34:41.069Z,-0.28
2023-02-27T01:35:41.049Z,-0.28
2023-02-27T01:36:41.036Z,-0.37
2023-02-27T01:37:41.003Z,-0.26
2023-02-27T01:38:41.033Z,-0.36
2023-02-27T01:39:41.004Z,-0.28
2023-02-27T01:40:41.005Z,-0.39
2023-02-27T01:41:40.984Z,-0.36
2023-02-27T01:42:40.969Z,-0.36
2023-02-27T01:43:40.972Z,-0.33
2023-02-27T01:44:40.945Z,-0.42
2023-02-27T01:45:40.945Z,-0.42
2023-02-27T01:46:40.938Z,-0.49
2023-02-27T01:47:40.921Z,-0.65
2023-02-27T01:48:40.932Z,-0.73
2023-02-27T01:49:40.903Z,-0.75
2023-02-27T01:50:40.889Z,-0.78
2023-02-27T01:51:40.865Z,-0.79
2023-02-27T01:52:40.862Z,-0.91
2023-02-27T01:53:40.876Z,-1.01
2023-02-27T01:54:40.860Z,-1.15
2023-02-27T01:55:40.841Z,-1.20
2023-02-27T01:56:40.843Z,-1.20
2023-02-27T01:57:40.852Z,-1.27
2023-02-27T01:58:41.830Z,-1.33
2023-02-27T01:59:40.810Z,-1.13
2023-02-27T02:00:40.811Z,-1.13
2023-02-27T02:01:40.797Z,-1.25
2023-02-27T02:02:40.789Z,-1.23
2023-02-27T02:03:40.767Z,-1.22
2023-02-27T02:04:40.750Z,-1.15
2023-02-27T02:05:40.745Z,-1.09
2023-02-27T02:06:40.750Z,-1.17
2023-02-27T02:07:40.748Z,-1.16
2023-02-27T02:08:40.727Z,-1.12
2023-02-27T02:09:40.711Z,-1.23
2023-02-27T02:10:40.699Z,-1.16
2023-02-27T02:11:40.694Z,-1.12
2023-02-27T02:12:40.700Z,-1.07
2023-02-27T02:13:40.687Z,-1.09
2023-02-27T02:14:40.659Z,-0.99
2023-02-27T02:15:40.654Z,-1.12
2023-02-27T02:16:40.734Z,-1.09
2023-02-27T02:17:40.664Z,-0.99
2023-02-27T02:18:40.626Z,-0.99
2023-02-27T02:19:40.620Z,-1.07
2023-02-27T02:20:40.614Z,-1.12
2023-02-27T02:21:40.600Z,-1.12
2023-02-27T02:22:40.609Z,-1.28
2023-02-27T02:23:40.585Z,-1.35
2023-02-27T02:24:40.558Z,-1.31
2023-02-27T02:25:40.554Z,-1.33
2023-02-27T02:26:40.555Z,-1.27
2023-02-27T02:27:40.563Z,-1.27
2023-02-27T02:28:40.543Z,-1.31
2023-02-27T02:29:40.541Z,-1.37
2023-02-27T02:30:40.600Z,-1.43
2023-02-27T02:31:40.617Z,-1.48
2023-02-27T02:32:40.516Z,-1.48
2023-02-27T02:33:40.494Z,-1.51
2023-02-27T02:34:40.478Z,-1.54
2023-02-27T02:35:40.468Z,-1.48
2023-02-27T02:36:40.467Z,-1.52
2023-02-27T02:37:40.459Z,-1.70
2023-02-27T02:38:40.429Z,-1.58
2023-02-27T02:39:40.436Z,-1.48
2023-02-27T02:40:40.438Z,-1.48
2023-02-27T02:41:40.434Z,-1.46
2023-02-27T02:42:40.398Z,-1.41
2023-02-27T02:43:40.395Z,-1.38
2023-02-27T02:44:40.384Z,-1.35
2023-02-27T02:45:40.396Z,-1.28
2023-02-27T02:46:40.367Z,-1.25
2023-02-27T02:47:40.360Z,-1.31
2023-02-27T02:48:40.354Z,-1.33
2023-02-27T02:49:40.328Z,-1.31
2023-02-27T02:50:40.331Z,-1.37
2023-02-27T02:51:40.329Z,-1.43
2023-02-27T02:52:40.318Z,-1.43
2023-02-27T02:53:40.291Z,-1.30
2023-02-27T02:54:40.283Z,-1.41
2023-02-27T02:55:40.276Z,-1.37
2023-02-27T02:56:40.258Z,-1.34
2023-02-27T02:57:40.284Z,-1.28
2023-02-27T02:58:40.274Z,-1.38
2023-02-27T02:59:40.238Z,-1.41
2023-02-27T03:00:40.229Z,-1.48
2023-02-27T03:01:40.234Z,-1.41
2023-02-27T03:02:40.222Z,-1.46
2023-02-27T03:03:40.212Z,-1.46
2023-02-27T03:04:40.221Z,-1.55
2023-02-27T03:05:40.185Z,-1.46
2023-02-27T03:06:40.194Z,-1.46
2023-02-27T03:07:40.229Z,-1.49
2023-02-27T03:08:40.165Z,-1.40
2023-02-27T03:09:40.153Z,-1.49
2023-02-27T03:10:40.154Z,-1.40
2023-02-27T03:11:40.121Z,-1.52
2023-02-27T03:12:40.127Z,-1.43
2023-02-27T03:13:40.118Z,-1.40
2023-02-27T03:14:40.120Z,-1.54
2023-02-27T03:15:40.145Z,-1.45
2023-02-27T03:16:40.077Z,-1.54
2023-02-27T03:17:40.072Z,-1.54
2023-02-27T03:18:40.061Z,-1.54
2023-02-27T03:19:40.081Z,-1.52
2023-02-27T03:20:40.053Z,-1.45
2023-02-27T03:21:40.035Z,-1.58
2023-02-27T03:22:40.057Z,-1.66
2023-02-27T03:23:40.019Z,-1.58
2023-02-27T03:24:40.019Z,-1.55
2023-02-27T03:25:39.993Z,-1.51
2023-02-27T03:26:39.992Z,-1.45
2023-02-27T03:27:39.991Z,-1.37
2023-02-27T03:28:39.964Z,-1.45
2023-02-27T03:29:39.976Z,-1.43
2023-02-27T03:30:39.970Z,-1.43
2023-02-27T03:31:39.996Z,-1.33
2023-02-27T03:32:39.918Z,-1.40
2023-02-27T03:33:39.917Z,-1.40
2023-02-27T03:34:39.920Z,-1.49
2023-02-27T03:35:39.902Z,-1.37
2023-02-27T03:36:39.884Z,-1.46
2023-02-27T03:37:39.881Z,-1.35
2023-02-27T03:38:39.872Z,-1.46
2023-02-27T03:39:39.889Z,-1.48
2023-02-27T03:40:39.845Z,-1.67
2023-02-27T03:41:39.845Z,-1.69
2023-02-27T03:42:39.839Z,-1.76
2023-02-27T03:43:39.843Z,-1.76
2023-02-27T03:44:39.828Z,-1.70
2023-02-27T03:45:39.821Z,-1.87
2023-02-27T03:46:39.844Z,-1.87
2023-02-27T03:47:39.810Z,-1.94
2023-02-27T03:48:39.795Z,-1.80
2023-02-27T03:49:39.774Z,-1.92
2023-02-27T03:50:39.764Z,-1.91
2023-02-27T03:51:39.760Z,-1.90
2023-02-27T03:52:39.750Z,-2.00
2023-02-27T03:53:39.749Z,-2.00
2023-02-27T03:54:39.721Z,-2.08
2023-02-27T03:55:39.716Z,-2.06
2023-02-27T03:56:39.709Z,-2.03
2023-02-27T03:57:39.701Z,-1.97
2023-02-27T03:58:39.712Z,-1.94
2023-02-27T03:59:39.677Z,-1.90
2023-02-27T04:00:39.674Z,-1.88
2023-02-27T04:01:39.676Z,-2.02
2023-02-27T04:02:39.648Z,-1.87
2023-02-27T04:03:39.662Z,-1.88
2023-02-27T04:04:39.672Z,-1.84
2023-02-27T04:05:46.298Z,-1.84
2023-02-27T04:06:39.644Z,-1.82
2023-02-27T04:07:39.637Z,-1.87
2023-02-27T04:08:39.603Z,-1.82
2023-02-27T04:09:39.595Z,-1.82
2023-02-27T04:10:39.590Z,-1.92
2023-02-27T04:11:39.584Z,-1.85
2023-02-27T04:12:39.577Z,-2.06
2023-02-27T04:13:39.545Z,-2.02
2023-02-27T04:14:39.552Z,-2.09
2023-02-27T04:15:39.548Z,-2.00
2023-02-27T04:16:39.544Z,-2.05
2023-02-27T04:17:39.505Z,-2.03
2023-02-27T04:18:39.532Z,-1.87
2023-02-27T04:19:39.500Z,-1.90
2023-02-27T04:20:39.517Z,-1.88
2023-02-27T04:21:39.485Z,-2.03
2023-02-27T04:22:39.475Z,-1.94
2023-02-27T04:23:39.478Z,-2.08
2023-02-27T04:24:39.470Z,-2.13
2023-02-27T04:25:39.459Z,-1.97
2023-02-27T04:26:39.420Z,-2.08
2023-02-27T04:27:39.421Z,-2.10
2023-02-27T04:28:39.439Z,-2.06
2023-02-27T04:29:39.408Z,-2.08
2023-02-27T04:30:39.407Z,-2.06
2023-02-27T04:31:39.488Z,-2.08
2023-02-27T04:32:39.479Z,-2.13
2023-02-27T04:33:39.398Z,-2.10
2023-02-27T04:34:39.368Z,-2.10
2023-02-27T04:35:39.353Z,-2.00
2023-02-27T04:36:39.350Z,-2.03
2023-02-27T04:37:40.337Z,-2.12
2023-02-27T04:38:39.325Z,-2.03
2023-02-27T04:39:39.335Z,-2.06
2023-02-27T04:40:39.329Z,-2.10
2023-02-27T04:41:39.308Z,-2.08
2023-02-27T04:42:39.304Z,-2.06
2023-02-27T04:43:39.281Z,-2.08
2023-02-27T04:44:39.301Z,-2.03
2023-02-27T04:45:39.289Z,-2.09
2023-02-27T04:46:39.269Z,-2.12
2023-02-27T04:47:39.254Z,-2.13
2023-02-27T04:48:39.236Z,-2.12
2023-02-27T04:49:39.269Z,-2.05
2023-02-27T04:50:39.241Z,-2.15
2023-02-27T04:51:39.213Z,-2.16
2023-02-27T04:52:39.208Z,-2.06
2023-02-27T04:53:39.191Z,-2.21
2023-02-27T04:54:39.184Z,-2.15
2023-02-27T04:55:39.187Z,-2.06
2023-02-27T04:56:39.165Z,-2.10
2023-02-27T04:57:39.158Z,-2.16
2023-02-27T04:58:39.153Z,-2.27
2023-02-27T04:59:39.178Z,-2.08
2023-02-27T05:00:39.162Z,-2.18
2023-02-27T05:01:39.136Z,-2.16
2023-02-27T05:02:39.229Z,-2.30
2023-02-27T05:03:39.101Z,-2.30
2023-02-27T05:04:39.085Z,-2.24
2023-02-27T05:05:39.089Z,-2.32
2023-02-27T05:06:39.068Z,-2.27
2023-02-27T05:07:39.082Z,-2.23
2023-02-27T05:08:39.060Z,-2.23
2023-02-27T05:09:39.036Z,-2.26
2023-02-27T05:10:39.043Z,-2.24
2023-02-27T05:11:39.048Z,-2.15
2023-02-27T05:12:39.011Z,-2.32
2023-02-27T05:13:39.000Z,-2.18
2023-02-27T05:14:38.992Z,-2.30
2023-02-27T05:15:39.042Z,-2.24
2023-02-27T05:16:39.010Z,-2.29
2023-02-27T05:17:39.030Z,-2.37
2023-02-27T05:18:38.972Z,-2.32
2023-02-27T05:19:38.954Z,-2.30
2023-02-27T05:20:38.963Z,-2.29
2023-02-27T05:21:38.938Z,-2.34
2023-02-27T05:22:38.930Z,-2.40
2023-02-27T05:23:38.919Z,-2.37
2023-02-27T05:24:38.924Z,-2.30
2023-02-27T05:25:38.917Z,-2.24
2023-02-27T05:26:38.879Z,-2.42
2023-02-27T05:27:38.879Z,-2.29
2023-02-27T05:28:38.862Z,-2.34
2023-02-27T05:29:38.883Z,-2.48
2023-02-27T05:30:38.895Z,-2.30
2023-02-27T05:31:38.881Z,-2.48
2023-02-27T05:32:38.967Z,-2.52
2023-02-27T05:33:38.832Z,-2.71
2023-02-27T05:34:38.823Z,-2.70
2023-02-27T05:35:38.835Z,-2.68
2023-02-27T05:36:38.804Z,-2.64
2023-02-27T05:37:38.798Z,-2.70
2023-02-27T05:38:38.788Z,-2.68
2023-02-27T05:39:38.766Z,-2.64
2023-02-27T05:40:38.761Z,-2.64
2023-02-27T05:41:38.756Z,-2.71
2023-02-27T05:42:38.743Z,-2.71
2023-02-27T05:43:38.724Z,-2.71
2023-02-27T05:44:38.730Z,-2.77
2023-02-27T05:45:38.741Z,-2.84
2023-02-27T05:46:38.715Z,-2.86
2023-02-27T05:47:38.689Z,-2.82
2023-02-27T05:48:38.675Z,-2.86
2023-02-27T05:49:38.677Z,-2.85
2023-02-27T05:50:38.673Z,-2.97
2023-02-27T05:51:38.643Z,-2.94
2023-02-27T05:52:38.632Z,-2.91
2023-02-27T05:53:38.634Z,-2.86
2023-02-27T05:54:38.614Z,-2.85
2023-02-27T05:55:38.622Z,-2.74
2023-02-27T05:56:38.625Z,-2.77
2023-02-27T05:57:38.590Z,-2.68
2023-02-27T05:58:38.588Z,-2.60
2023-02-27T05:59:38.585Z,-2.55
2023-02-27T06:00:38.562Z,-2.56
2023-02-27T06:01:38.582Z,-2.49
2023-02-27T06:02:38.546Z,-2.53
2023-02-27T06:03:38.608Z,-2.55
2023-02-27T06:04:38.528Z,-2.52
2023-02-27T06:05:38.518Z,-2.55
2023-02-27T06:06:38.508Z,-2.63
2023-02-27T06:07:38.523Z,-2.52
2023-02-27T06:08:38.506Z,-2.55
2023-02-27T06:09:38.490Z,-2.55
2023-02-27T06:10:38.474Z,-2.50
2023-02-27T06:11:38.461Z,-2.43
2023-02-27T06:12:38.473Z,-2.40
2023-02-27T06:13:40.850Z,-2.35
2023-02-27T06:14:38.447Z,-2.29
2023-02-27T06:15:39.454Z,-2.35
2023-02-27T06:16:38.474Z,-2.37
2023-02-27T06:17:38.415Z,-2.34
2023-02-27T06:18:38.402Z,-2.26
2023-02-27T06:19:38.412Z,-2.21
2023-02-27T06:20:38.389Z,-2.18
2023-02-27T06:21:38.386Z,-2.21
2023-02-27T06:22:38.509Z,-2.13
2023-02-27T06:23:38.377Z,-2.08
2023-02-27T06:24:38.350Z,-2.06
2023-02-27T06:25:38.338Z,-1.97
2023-02-27T06:26:38.360Z,-1.88
2023-02-27T06:27:38.330Z,-1.87
2023-02-27T06:28:38.337Z,-1.90
2023-02-27T06:29:38.301Z,-1.91
2023-02-27T06:30:38.318Z,-1.97
2023-02-27T06:31:38.310Z,-1.92
2023-02-27T06:32:38.279Z,-1.91
2023-02-27T06:33:38.268Z,-1.82
2023-02-27T06:34:38.247Z,-1.92
2023-02-27T06:35:38.292Z,-1.87
2023-02-27T06:36:38.251Z,-1.69
2023-02-27T06:37:38.207Z,-1.74
2023-02-27T06:38:38.213Z,-1.72
2023-02-27T06:39:38.204Z,-1.79
2023-02-27T06:40:38.193Z,-1.77
2023-02-27T06:41:38.208Z,-1.70
2023-02-27T06:42:38.172Z,-1.73
2023-02-27T06:43:38.160Z,-1.61
2023-02-27T06:44:38.148Z,-1.69
2023-02-27T06:45:38.147Z,-1.76
2023-02-27T06:46:38.241Z,-1.72
2023-02-27T06:47:38.145Z,-1.72
2023-02-27T06:48:38.120Z,-1.70
2023-02-27T06:49:38.096Z,-1.64
2023-02-27T06:50:38.096Z,-1.67
2023-02-27T06:51:38.108Z,-1.61
2023-02-27T06:52:38.094Z,-1.69
2023-02-27T06:53:38.074Z,-1.55
2023-02-27T06:54:38.065Z,-1.52
2023-02-27T06:55:38.062Z,-1.55
2023-02-27T06:56:38.056Z,-1.56
2023-02-27T06:57:38.096Z,-1.56
2023-02-27T06:58:38.025Z,-1.51
2023-02-27T06:59:38.019Z,-1.52
2023-02-27T07:00:38.046Z,-1.48
2023-02-27T07:01:38.095Z,-1.38
2023-02-27T07:02:38.019Z,-1.41
2023-02-27T07:03:37.988Z,-1.48
2023-02-27T07:04:38.031Z,-1.45
2023-02-27T07:05:37.967Z,-1.48
2023-02-27T07:07:34.420Z,-1.30
2023-02-27T07:07:39.207Z,-1.34
2023-02-27T07:08:38.010Z,-1.35
2023-02-27T07:09:39.085Z,-1.33
2023-02-27T07:10:37.932Z,-1.28
2023-02-27T07:11:37.901Z,-1.30
2023-02-27T07:12:37.881Z,-1.27
2023-02-27T07:13:37.883Z,-1.30
2023-02-27T07:14:37.878Z,-1.23
2023-02-27T07:15:37.908Z,-1.30
2023-02-27T07:16:37.857Z,-1.23
2023-02-27T07:17:37.857Z,-1.35
2023-02-27T07:18:37.872Z,-1.19
2023-02-27T07:19:37.845Z,-1.20
2023-02-27T07:20:37.838Z,-1.12
2023-02-27T07:21:37.809Z,-1.07
2023-02-27T07:22:37.831Z,-1.25
2023-02-27T07:23:37.788Z,-0.98
2023-02-27T07:24:37.789Z,-1.09
2023-02-27T07:25:37.776Z,-1.07
2023-02-27T07:26:37.765Z,-1.02
2023-02-27T07:27:37.781Z,-0.94
2023-02-27T07:28:37.827Z,-0.95
2023-02-27T07:29:37.731Z,-0.94
2023-02-27T07:30:37.731Z,-0.78
2023-02-27T07:31:37.770Z,-0.79
2023-02-27T07:32:37.725Z,-0.76
2023-02-27T07:33:37.717Z,-0.75
2023-02-27T07:34:37.692Z,-0.79
2023-02-27T07:35:37.728Z,-0.64
2023-02-27T07:36:37.672Z,-0.61
2023-02-27T07:37:37.684Z,-0.58
2023-02-27T07:38:37.655Z,-0.51
2023-02-27T07:39:37.648Z,-0.54
2023-02-27T07:40:37.631Z,-0.42
2023-02-27T07:41:37.633Z,-0.40
2023-02-27T07:42:37.628Z,-0.42
2023-02-27T07:43:37.617Z,-0.37
2023-02-27T07:44:37.620Z,-0.36
2023-02-27T07:45:37.587Z,-0.37
2023-02-27T07:46:37.654Z,-0.28
2023-02-27T07:47:37.560Z,-0.39
2023-02-27T07:48:37.565Z,-0.37
2023-02-27T07:49:37.569Z,-0.26
2023-02-27T07:50:37.548Z,-0.23
2023-02-27T07:51:37.543Z,-0.23
2023-02-27T07:52:37.525Z,-0.25
2023-02-27T07:53:37.517Z,-0.10
2023-02-27T07:54:37.582Z,-0.18
2023-02-27T07:55:37.507Z,-0.10
2023-02-27T07:56:37.514Z,-0.05
2023-02-27T07:57:37.488Z,-0.08
2023-02-27T07:58:37.474Z,-0.11
2023-02-27T07:59:37.490Z,0.00
2023-02-27T08:00:37.478Z,-0.03
2023-02-27T08:01:37.447Z,-0.01
2023-02-27T08:02:37.454Z,0.24
2023-02-27T08:03:37.428Z,0.33
2023-02-27T08:04:37.447Z,0.46
2023-02-27T08:05:37.464Z,0.47
2023-02-27T08:06:37.419Z,0.51
2023-02-27T08:07:37.384Z,0.68
2023-02-27T08:08:37.397Z,0.68
2023-02-27T08:09:37.362Z,0.70
2023-02-27T08:10:37.370Z,0.68
2023-02-27T08:11:37.372Z,0.61
2023-02-27T08:12:37.351Z,0.65
2023-02-27T08:14:03.487Z,0.62
2023-02-27T08:14:39.318Z,0.87
2023-02-27T08:15:37.335Z,0.87
2023-02-27T08:16:37.471Z,0.93
2023-02-27T08:17:37.326Z,0.97
2023-02-27T08:18:37.288Z,0.96
2023-02-27T08:19:37.270Z,0.93
2023-02-27T08:20:37.270Z,1.00
2023-02-27T08:21:37.299Z,0.93
2023-02-27T08:22:37.249Z,0.80
2023-02-27T08:23:37.248Z,0.93
2023-02-27T08:24:37.239Z,0.96
2023-02-27T08:25:37.236Z,0.88
2023-02-27T08:26:37.193Z,0.88
2023-02-27T08:27:37.195Z,0.84
2023-02-27T08:28:37.189Z,0.70
2023-02-27T08:29:37.206Z,0.79
2023-02-27T08:30:37.166Z,0.80
2023-02-27T08:31:37.203Z,0.69
2023-02-27T08:32:37.147Z,0.86
2023-02-27T08:33:37.143Z,0.91
2023-02-27T08:34:37.157Z,0.83
2023-02-27T08:35:37.132Z,0.97
2023-02-27T08:36:37.109Z,1.04
2023-02-27T08:37:37.084Z,1.23
2023-02-27T08:38:37.099Z,1.20
2023-02-27T08:39:37.078Z,1.18
2023-02-27T08:40:37.090Z,1.33
2023-02-27T08:41:37.082Z,1.50
2023-02-27T08:42:37.061Z,1.44
2023-02-27T08:43:37.033Z,1.42
2023-02-27T08:44:37.033Z,1.41
2023-02-27T08:45:37.053Z,1.55
2023-02-27T08:46:37.013Z,1.76
2023-02-27T08:47:36.998Z,1.88
2023-02-27T08:48:36.977Z,2.06
2023-02-27T08:49:36.974Z,2.10
2023-02-27T08:50:36.963Z,2.12
2023-02-27T08:51:36.968Z,1.91
2023-02-27T08:52:36.950Z,1.93
2023-02-27T08:53:36.934Z,1.88
2023-02-27T08:54:36.962Z,1.87
2023-02-27T08:55:36.910Z,1.91
2023-02-27T08:56:36.939Z,1.73
2023-02-27T08:57:36.899Z,1.88
2023-02-27T08:58:36.918Z,1.88
2023-02-27T08:59:36.925Z,1.86
2023-02-27T09:00:36.877Z,1.84
2023-02-27T09:01:36.884Z,1.70
2023-02-27T09:02:36.914Z,1.72
2023-02-27T09:03:36.832Z,1.80
2023-02-27T09:04:36.840Z,1.77
2023-02-27T09:05:36.821Z,1.76
2023-02-27T09:06:36.831Z,2.07
2023-02-27T09:07:36.813Z,2.46
2023-02-27T09:08:36.784Z,2.27
2023-02-27T09:09:36.798Z,2.95
2023-02-27T09:10:36.799Z,2.99
2023-02-27T09:11:38.663Z,3.02
2023-02-27T09:12:36.745Z,2.89
2023-02-27T09:13:36.754Z,2.79
2023-02-27T09:14:36.768Z,2.77
2023-02-27T09:15:36.734Z,2.84
2023-02-27T09:16:36.786Z,2.69
2023-02-27T09:17:36.688Z,2.52
2023-02-27T09:18:36.688Z,2.97
2023-02-27T09:19:36.703Z,3.51
2023-02-27T09:20:36.683Z,3.61
2023-02-27T09:21:36.705Z,3.54
2023-02-27T09:22:36.655Z,3.73
2023-02-27T09:23:36.669Z,3.66
2023-02-27T09:24:36.629Z,4.09
2023-02-27T09:25:36.628Z,4.51
2023-02-27T09:26:45.642Z,4.60
2023-02-27T09:27:38.613Z,4.44
2023-02-27T09:28:36.599Z,4.02
2023-02-27T09:29:36.618Z,4.48
2023-02-27T09:30:36.589Z,4.00
2023-02-27T09:31:36.610Z,3.79
2023-02-27T09:32:36.619Z,3.69
2023-02-27T09:33:36.545Z,3.61
2023-02-27T09:34:36.600Z,3.20
2023-02-27T09:35:36.561Z,3.51
2023-02-27T09:36:36.527Z,4.08
2023-02-27T09:37:36.517Z,3.87
2023-02-27T09:38:36.506Z,3.36
2023-02-27T09:39:36.510Z,3.17
2023-02-27T09:40:36.497Z,3.06
2023-02-27T09:41:36.487Z,3.02
2023-02-27T09:42:36.504Z,3.55
2023-02-27T09:43:36.506Z,3.91
2023-02-27T09:44:45.720Z,4.23
2023-02-27T09:45:37.508Z,4.41
2023-02-27T09:46:36.437Z,4.44
2023-02-27T09:47:36.446Z,4.59
2023-02-27T09:48:36.411Z,4.67
2023-02-27T09:49:36.410Z,4.91
2023-02-27T09:50:36.400Z,4.63
2023-02-27T09:51:36.390Z,4.32
2023-02-27T09:52:36.389Z,4.42
2023-02-27T09:53:36.363Z,4.89
2023-02-27T09:54:36.346Z,5.15
2023-02-27T09:55:36.343Z,5.45
2023-02-27T09:56:36.346Z,5.43
2023-02-27T09:57:36.309Z,5.43
2023-02-27T09:58:36.322Z,5.53
2023-02-27T09:59:36.308Z,5.58
2023-02-27T10:00:36.306Z,5.75
2023-02-27T10:01:36.283Z,5.74
2023-02-27T10:02:36.322Z,5.31
2023-02-27T10:03:36.280Z,5.20
2023-02-27T10:04:36.297Z,5.35
2023-02-27T10:05:37.245Z,5.49
2023-02-27T10:06:36.241Z,5.64
2023-02-27T10:08:08.135Z,5.58
2023-02-27T10:08:36.238Z,5.75
2023-02-27T10:09:36.266Z,5.90
2023-02-27T10:10:36.215Z,5.46
2023-02-27T10:11:36.195Z,5.46
2023-02-27T10:12:36.186Z,5.24
2023-02-27T10:13:36.186Z,5.25
2023-02-27T10:14:36.164Z,4.99
2023-02-27T10:15:36.182Z,4.62
2023-02-27T10:16:36.203Z,4.65
2023-02-27T10:17:36.174Z,4.82
2023-02-27T10:18:36.143Z,4.78
2023-02-27T10:19:36.139Z,4.48
2023-02-27T10:20:36.111Z,4.47
2023-02-27T10:21:36.109Z,4.58
2023-02-27T10:22:36.106Z,4.24
2023-02-27T10:23:36.089Z,4.24
2023-02-27T10:24:36.093Z,3.86
2023-02-27T10:25:36.081Z,3.87
2023-02-27T10:26:36.056Z,3.94
2023-02-27T10:27:36.059Z,3.98
2023-02-27T10:28:36.034Z,4.14
2023-02-27T10:29:36.042Z,3.93
2023-02-27T10:30:36.213Z,3.84
2023-02-27T10:31:36.139Z,3.51
2023-02-27T10:32:36.009Z,3.43
2023-02-27T10:33:35.991Z,3.51
2023-02-27T10:34:35.968Z,3.45
2023-02-27T10:35:36.066Z,3.40
2023-02-27T10:36:35.997Z,3.50
2023-02-27T10:37:35.969Z,3.78
2023-02-27T10:38:35.967Z,3.90
2023-02-27T10:39:35.967Z,3.91
2023-02-27T10:40:35.945Z,3.78
2023-02-27T10:41:35.924Z,3.65
2023-02-27T10:42:35.927Z,4.02
2023-02-27T10:43:35.899Z,4.06
2023-02-27T10:44:35.875Z,4.04
2023-02-27T10:45:37.894Z,3.66
2023-02-27T10:46:35.960Z,3.87
2023-02-27T10:47:35.862Z,4.06
2023-02-27T10:48:35.857Z,4.20
2023-02-27T10:49:35.841Z,4.50
2023-02-27T10:50:35.831Z,4.66
2023-02-27T10:51:35.808Z,4.58
2023-02-27T10:52:35.805Z,4.30
2023-02-27T10:53:35.824Z,4.20
2023-02-27T10:54:35.780Z,4.04
2023-02-27T10:55:35.790Z,3.91
2023-02-27T10:56:35.793Z,4.27
2023-02-27T10:57:35.753Z,4.32
2023-02-27T10:58:35.748Z,4.40
2023-02-27T10:59:36.736Z,4.52
2023-02-27T11:00:35.770Z,4.41
2023-02-27T11:01:35.765Z,4.45
2023-02-27T11:02:35.726Z,4.45
2023-02-27T11:03:35.728Z,4.47
2023-02-27T11:04:35.776Z,4.44
2023-02-27T11:05:35.677Z,4.51
2023-02-27T11:06:35.668Z,4.29
2023-02-27T11:07:35.665Z,4.05
2023-02-27T11:08:35.660Z,4.16
2023-02-27T11:09:35.662Z,4.20
2023-02-27T11:10:35.634Z,4.33
2023-02-27T11:11:35.603Z,4.37
2023-02-27T11:12:35.624Z,4.44
2023-02-27T11:13:35.594Z,4.42
2023-02-27T11:14:35.612Z,4.16
2023-02-27T11:15:35.647Z,3.93
2023-02-27T11:16:35.564Z,3.93
2023-02-27T11:17:35.580Z,4.00
2023-02-27T11:18:35.575Z,3.94
2023-02-27T11:19:35.603Z,4.23
2023-02-27T11:20:35.543Z,4.32
2023-02-27T11:21:35.545Z,4.51
2023-02-27T11:22:35.536Z,4.45
2023-02-27T11:23:35.518Z,4.48
2023-02-27T11:24:35.503Z,4.63
2023-02-27T11:25:35.479Z,4.51
2023-02-27T11:26:35.546Z,4.24
2023-02-27T11:27:35.477Z,4.05
2023-02-27T11:28:35.459Z,3.97
2023-02-27T11:29:35.445Z,3.87
2023-02-27T11:30:35.433Z,3.80
2023-02-27T11:31:35.484Z,3.86
2023-02-27T11:32:35.416Z,4.15
2023-02-27T11:33:35.415Z,4.42
2023-02-27T11:34:35.414Z,4.45
2023-02-27T11:35:35.410Z,4.37
2023-02-27T11:36:35.388Z,4.27
2023-02-27T11:37:35.399Z,4.11
2023-02-27T11:38:35.383Z,4.12
2023-02-27T11:39:35.349Z,3.73
2023-02-27T11:40:35.358Z,4.11
2023-02-27T11:41:35.322Z,4.29
2023-02-27T11:42:35.316Z,4.37
2023-02-27T11:43:35.342Z,4.41
2023-02-27T11:44:50.843Z,4.48
2023-02-27T11:46:17.651Z,4.54
2023-02-27T11:46:47.994Z,4.72
2023-02-27T11:47:36.335Z,4.91
2023-02-27T11:48:35.293Z,4.73
2023-02-27T11:49:35.274Z,4.50
2023-02-27T11:50:35.310Z,4.65
2023-02-27T11:51:35.227Z,4.72
2023-02-27T11:52:35.212Z,4.73
2023-02-27T11:53:36.191Z,4.75
2023-02-27T11:54:35.284Z,4.80
2023-02-27T11:55:35.186Z,5.15
2023-02-27T11:56:36.267Z,5.40
2023-02-27T11:57:36.158Z,5.57
2023-02-27T11:58:35.159Z,5.45
2023-02-27T11:59:35.182Z,5.51
2023-02-27T12:00:35.158Z,5.45
2023-02-27T12:01:35.148Z,5.21
2023-02-27T12:02:36.596Z,5.27
2023-02-27T12:03:35.151Z,5.39
2023-02-27T12:04:35.122Z,5.51
2023-02-27T12:05:35.089Z,5.43
2023-02-27T12:06:35.073Z,5.04
2023-02-27T12:07:35.090Z,4.73
2023-02-27T12:08:35.069Z,4.60
2023-02-27T12:09:35.147Z,4.82
2023-02-27T12:10:35.058Z,4.77
2023-02-27T12:11:35.069Z,4.94
2023-02-27T12:12:35.027Z,5.12
2023-02-27T12:13:35.014Z,5.20
2023-02-27T12:14:35.027Z,5.21
2023-02-27T12:15:34.993Z,5.36
2023-02-27T12:16:35.548Z,5.48
2023-02-27T12:17:34.965Z,5.38
2023-02-27T12:18:35.022Z,5.43
2023-02-27T12:19:34.969Z,5.61
2023-02-27T12:20:34.961Z,5.79
2023-02-27T12:21:34.970Z,5.97
2023-02-27T12:22:34.921Z,5.99
2023-02-27T12:23:34.914Z,5.74
2023-02-27T12:24:34.902Z,5.79
2023-02-27T12:25:34.922Z,5.58
2023-02-27T12:26:34.916Z,5.56
2023-02-27T12:27:34.926Z,5.90
2023-02-27T12:28:34.885Z,5.86
2023-02-27T12:29:34.881Z,5.72
2023-02-27T12:30:34.846Z,5.90
2023-02-27T12:31:34.939Z,5.72
2023-02-27T12:32:34.938Z,5.86
2023-02-27T12:33:35.855Z,5.58
2023-02-27T12:34:34.808Z,5.18
2023-02-27T12:35:34.881Z,4.97
2023-02-27T12:36:34.812Z,4.75
2023-02-27T12:37:34.795Z,4.52
2023-02-27T12:38:37.396Z,4.65
2023-02-27T12:39:34.783Z,4.70
2023-02-27T12:40:34.756Z,4.85
2023-02-27T12:41:34.738Z,5.09
2023-02-27T12:42:34.788Z,5.13
2023-02-27T12:43:34.745Z,5.25
2023-02-27T12:44:34.704Z,5.39
2023-02-27T12:45:34.728Z,5.40
2023-02-27T12:46:34.692Z,5.27
2023-02-27T12:47:34.730Z,5.09
2023-02-27T12:48:34.665Z,5.07
2023-02-27T12:49:34.661Z,5.07
2023-02-27T12:50:34.652Z,4.96
2023-02-27T12:54:03.611Z,4.60
2023-02-27T12:54:43.480Z,4.52
2023-02-27T12:55:42.784Z,4.63
2023-02-27T12:56:42.791Z,4.58
2023-02-27T12:57:42.752Z,4.50
2023-02-27T12:58:42.766Z,4.60
2023-02-27T12:59:42.731Z,4.67
2023-02-27T13:00:42.773Z,4.85
2023-02-27T13:01:42.727Z,4.86
2023-02-27T13:02:42.707Z,4.85
2023-02-27T13:03:42.741Z,4.67
2023-02-27T13:04:42.735Z,4.77